Time;durP1;ratioP1;P1;durP2;ratioP2;P2;SDS_P1;SDS_P2;PMS_P1;PMS_P2;Temp;Humidity;BMP_temperature;BMP_pressure;BME280_temperature;BME280_humidity;BME280_pressure;Samples;Min_cycle;Max_cycle;Signal;HPM_P1;HPM_P2
2022/08/18 00:02:13;;;;;;;0.32;0.32;;;17.60;99.90;;;;;;4993171;28;20069;-78
2022/08/18 00:04:39;;;;;;;1.75;0.93;;;17.70;99.90;;;;;;4993140;28;20038;-78
2022/08/18 00:07:06;;;;;;;0.77;0.57;;;17.60;99.90;;;;;;4995820;28;20066;-78
2022/08/18 00:09:34;;;;;;;2.10;1.00;;;17.60;99.90;;;;;;4992399;28;20045;-78
2022/08/18 00:12:03;;;;;;;0.55;0.43;;;17.60;99.90;;;;;;4981388;28;20062;-78
2022/08/18 00:14:29;;;;;;;0.47;0.47;;;17.60;99.90;;;;;;4993717;28;20047;-78
2022/08/18 00:16:55;;;;;;;0.55;0.32;;;17.60;99.90;;;;;;4992465;28;20046;-78
2022/08/18 00:19:22;;;;;;;0.60;0.28;;;17.50;99.90;;;;;;4993173;28;20038;-78
2022/08/18 00:21:48;;;;;;;0.30;0.30;;;17.50;99.90;;;;;;4992743;28;20072;-77
2022/08/18 00:24:14;;;;;;;2.22;1.38;;;17.50;99.90;;;;;;4997623;28;20078;-78
2022/08/18 00:26:39;;;;;;;0.60;0.60;;;17.50;99.90;;;;;;4997901;28;20042;-78
2022/08/18 00:29:05;;;;;;;0.00;0.00;;;17.50;99.90;;;;;;4996992;28;20057;-78
2022/08/18 00:31:31;;;;;;;0.75;0.55;;;17.50;99.90;;;;;;4998650;28;20038;-79
2022/08/18 00:33:56;;;;;;;1.27;1.10;;;17.50;99.90;;;;;;4998804;28;20365;-78
2022/08/18 00:36:22;;;;;;;0.22;0.17;;;17.50;99.90;;;;;;4998686;28;20046;-78
2022/08/18 00:38:47;;;;;;;0.73;0.20;;;17.50;99.90;;;;;;4997976;28;20031;-78
2022/08/18 00:41:16;;;;;;;1.35;1.08;;;17.50;99.90;;;;;;4997925;28;20031;-78
2022/08/18 00:43:48;;;;;;;0.90;0.90;;;17.50;99.90;;;;;;4999027;28;20054;-77
2022/08/18 00:46:27;;;;;;;10.77;0.60;;;17.50;99.90;;;;;;4997938;28;20067;-78
2022/08/18 00:48:53;;;;;;;0.28;0.28;;;17.50;99.90;;;;;;4998927;28;20047;-78
2022/08/18 00:51:28;;;;;;;1.42;0.93;;;17.50;99.90;;;;;;4997967;28;20030;-76
2022/08/18 00:54:21;;;;;;;0.80;0.55;;;17.40;99.90;;;;;;4985570;28;20049;-77
2022/08/18 00:56:57;;;;;;;0.57;0.52;;;17.40;99.90;;;;;;4997968;28;20054;-77
2022/08/18 00:59:32;;;;;;;0.70;0.30;;;17.40;99.90;;;;;;4998049;28;20106;-78
2022/08/18 01:02:01;;;;;;;0.15;0.15;;;17.50;99.90;;;;;;4997357;28;20054;-78
2022/08/18 01:05:07;;;;;;;0.10;0.10;;;17.40;99.90;;;;;;4997834;28;20027;-78
2022/08/18 01:07:47;;;;;;;0.63;0.50;;;17.50;99.90;;;;;;4977151;28;20047;-78
2022/08/18 01:10:22;;;;;;;0.38;0.32;;;17.50;99.90;;;;;;4997678;28;20027;-77
2022/08/18 01:12:54;;;;;;;0.20;0.20;;;17.50;99.90;;;;;;4997029;28;20031;-77
2022/08/18 01:15:21;;;;;;;2.45;1.30;;;17.50;99.90;;;;;;4995182;28;20338;-77
2022/08/18 01:23:25;;;;;;;0.20;0.20;;;17.60;99.90;;;;;;4999672;28;20030;-77
2022/08/18 01:26:05;;;;;;;0.35;0.25;;;17.60;99.90;;;;;;5001194;28;20046;-77
2022/08/18 01:28:36;;;;;;;0.52;0.30;;;18.50;99.90;;;;;;5001386;28;20038;-77
2022/08/18 01:31:04;;;;;;;0.00;0.00;;;17.70;99.90;;;;;;5000716;28;20069;-79
2022/08/18 01:33:32;;;;;;;0.55;0.32;;;17.70;99.90;;;;;;5001432;28;20050;-77
2022/08/18 01:36:19;;;;;;;0.80;0.65;;;17.70;99.90;;;;;;5001120;28;20035;-77
2022/08/18 01:38:51;;;;;;;0.20;0.20;;;17.70;99.90;;;;;;5001284;28;20059;-76
2022/08/18 01:41:20;;;;;;;1.02;0.68;;;17.60;99.90;;;;;;5000827;28;20039;-77
2022/08/18 01:43:46;;;;;;;0.30;0.10;;;17.60;99.90;;;;;;5000453;28;20079;-77
2022/08/18 01:46:13;;;;;;;2.00;1.35;;;17.50;99.90;;;;;;4999840;28;20064;-77
2022/08/18 01:48:39;;;;;;;0.13;0.13;;;17.60;99.90;;;;;;5000373;28;20081;-76
2022/08/18 01:51:07;;;;;;;0.20;0.20;;;17.50;99.90;;;;;;5000540;28;20034;-79
2022/08/18 01:53:33;;;;;;;0.43;0.43;;;17.40;99.90;;;;;;4980777;29;20043;-77
2022/08/18 01:58:34;;;;;;;0.98;0.68;;;17.40;99.90;;;;;;4979449;28;20059;-77
2022/08/18 02:01:01;;;;;;;0.30;0.30;;;18.00;99.90;;;;;;4978786;28;20135;-78
2022/08/18 02:03:41;;;;;;;0.10;0.10;;;17.40;99.90;;;;;;4988026;28;20406;-79
2022/08/18 02:06:12;;;;;;;0.38;0.38;;;17.50;99.90;;;;;;4977182;28;20098;-78
2022/08/18 02:08:38;;;;;;;2.40;1.55;;;18.00;99.90;;;;;;4968142;28;20134;-78
2022/08/18 02:11:05;;;;;;;0.20;0.20;;;17.50;99.90;;;;;;4986826;28;20047;-78
2022/08/18 02:13:32;;;;;;;9.23;0.98;;;17.40;99.90;;;;;;4986691;28;20047;-78
2022/08/18 02:15:58;;;;;;;0.38;0.32;;;17.40;99.90;;;;;;4988746;28;20050;-78
2022/08/18 02:18:27;;;;;;;0.10;0.10;;;17.40;99.90;;;;;;4987334;28;20517;-80
2022/08/18 02:20:55;;;;;;;0.52;0.43;;;17.40;99.90;;;;;;4986611;28;20090;-79
2022/08/18 02:23:20;;;;;;;0.38;0.25;;;17.40;99.90;;;;;;4987425;28;20043;-79
2022/08/18 02:25:46;;;;;;;2.08;0.38;;;17.40;99.90;;;;;;4988141;28;20061;-78
2022/08/18 02:28:11;;;;;;;0.35;0.35;;;17.40;99.90;;;;;;4988643;28;20043;-78
2022/08/18 02:30:38;;;;;;;0.20;0.20;;;17.40;99.90;;;;;;4988276;28;20054;-78
2022/08/18 02:33:09;;;;;;;0.68;0.52;;;17.50;99.90;;;;;;4987966;28;20090;-79
2022/08/18 02:35:36;;;;;;;0.17;0.17;;;17.50;99.90;;;;;;4986696;28;20057;-78
2022/08/18 02:38:04;;;;;;;0.90;0.82;;;17.50;99.90;;;;;;4988574;28;20039;-79
2022/08/18 02:40:32;;;;;;;0.00;0.00;;;17.50;99.90;;;;;;4988261;28;20049;-78
2022/08/18 02:43:03;;;;;;;0.75;0.38;;;17.60;99.90;;;;;;4988908;28;20046;-79
2022/08/18 02:45:29;;;;;;;0.47;0.47;;;18.30;99.90;;;;;;4988130;28;20046;-78
2022/08/18 02:47:55;;;;;;;0.10;0.10;;;17.60;99.90;;;;;;4988037;28;20043;-79
2022/08/18 02:50:21;;;;;;;0.75;0.20;;;17.60;99.90;;;;;;4988395;28;20066;-77
2022/08/18 02:52:47;;;;;;;0.10;0.10;;;17.60;99.90;;;;;;4988318;28;20039;-78
2022/08/18 02:55:14;;;;;;;0.10;0.10;;;17.70;99.90;;;;;;4988030;28;20046;-79
2022/08/18 02:57:42;;;;;;;12.75;2.00;;;17.60;99.90;;;;;;4973342;28;20059;-79
2022/08/18 03:00:10;;;;;;;0.13;0.13;;;17.70;99.90;;;;;;4966695;28;20058;-79
2022/08/18 03:02:37;;;;;;;0.55;0.52;;;17.70;99.90;;;;;;4967970;28;20120;-79
2022/08/18 03:05:03;;;;;;;0.10;0.10;;;18.60;99.90;;;;;;4964453;28;20122;-78
2022/08/18 03:07:28;;;;;;;0.75;0.47;;;17.70;99.90;;;;;;4968357;28;20054;-79
2022/08/18 03:09:54;;;;;;;0.20;0.20;;;17.70;99.90;;;;;;4969314;28;20107;-78
2022/08/18 03:12:20;;;;;;;0.50;0.43;;;17.60;99.90;;;;;;4966992;28;20050;-78
2022/08/18 03:14:45;;;;;;;0.55;0.55;;;17.60;99.90;;;;;;4967760;28;20624;-78
2022/08/18 03:17:13;;;;;;;0.93;0.40;;;17.60;99.90;;;;;;4968170;28;20040;-78
2022/08/18 03:19:39;;;;;;;1.17;0.77;;;17.60;99.90;;;;;;4967305;28;20051;-78
2022/08/18 03:22:07;;;;;;;0.95;0.85;;;17.50;99.90;;;;;;4968957;28;20062;-78
2022/08/18 03:24:35;;;;;;;2.28;0.90;;;17.50;99.90;;;;;;4969175;28;20054;-78
2022/08/18 03:27:04;;;;;;;1.08;0.90;;;17.40;99.90;;;;;;4969071;28;20039;-78
2022/08/18 03:29:31;;;;;;;0.03;0.03;;;17.50;99.90;;;;;;4969296;28;20047;-79
2022/08/18 03:31:56;;;;;;;0.75;0.47;;;17.40;99.90;;;;;;4967597;28;20047;-78
2022/08/18 03:34:22;;;;;;;0.17;0.17;;;17.40;99.90;;;;;;4968085;29;20057;-78
2022/08/18 03:36:49;;;;;;;0.47;0.47;;;17.30;99.90;;;;;;4968868;29;20040;-79
2022/08/18 03:39:16;;;;;;;30.77;2.25;;;17.30;99.90;;;;;;4966034;28;20098;-79
2022/08/18 03:41:43;;;;;;;0.10;0.05;;;17.40;99.90;;;;;;4965989;28;20043;-78
2022/08/18 03:44:10;;;;;;;0.00;0.00;;;17.80;99.90;;;;;;4965671;28;20043;-78
2022/08/18 03:46:36;;;;;;;0.47;0.47;;;17.40;99.90;;;;;;4964344;28;20059;-79
2022/08/18 03:49:01;;;;;;;0.13;0.13;;;17.50;99.90;;;;;;4967312;29;20047;-78
2022/08/18 03:51:30;;;;;;;1.17;0.75;;;17.50;99.90;;;;;;4966412;28;20044;-78
2022/08/18 03:53:59;;;;;;;1.65;0.70;;;17.50;99.90;;;;;;4966924;28;20066;-78
2022/08/18 03:56:27;;;;;;;1.40;0.90;;;17.50;99.90;;;;;;4966523;28;20046;-78
2022/08/18 03:58:59;;;;;;;0.90;0.43;;;17.60;99.90;;;;;;4968509;29;20102;-78
2022/08/18 04:01:27;;;;;;;1.77;0.93;;;17.50;99.90;;;;;;4966279;28;20043;-79
2022/08/18 04:04:00;;;;;;;0.20;0.20;;;17.50;99.90;;;;;;4966347;29;20054;-78
2022/08/18 04:06:31;;;;;;;3.05;1.00;;;17.70;99.90;;;;;;4966879;28;20077;-78
2022/08/18 04:09:00;;;;;;;1.38;1.10;;;17.60;99.90;;;;;;4966704;28;20051;-79
2022/08/18 04:11:27;;;;;;;3.97;1.05;;;17.60;99.90;;;;;;4967748;28;20043;-79
2022/08/18 04:13:56;;;;;;;0.88;0.63;;;17.60;99.90;;;;;;4967711;28;20083;-78
2022/08/18 04:16:26;;;;;;;3.83;0.88;;;17.60;99.90;;;;;;4948165;29;20039;-77
2022/08/18 04:18:51;;;;;;;1.33;0.90;;;17.60;99.90;;;;;;4951953;29;20071;-78
2022/08/18 04:21:17;;;;;;;0.70;0.70;;;17.60;99.90;;;;;;4966996;29;20047;-78
2022/08/18 04:23:43;;;;;;;0.55;0.35;;;17.60;99.90;;;;;;4965990;29;20043;-78
2022/08/18 04:26:11;;;;;;;0.40;0.40;;;17.60;99.90;;;;;;4967285;29;20047;-78
2022/08/18 04:28:37;;;;;;;0.13;0.13;;;17.60;99.90;;;;;;4968269;28;20047;-78
2022/08/18 04:31:11;;;;;;;0.55;0.47;;;17.60;99.90;;;;;;4967363;28;20051;-78
2022/08/18 04:33:38;;;;;;;0.65;0.65;;;17.70;99.90;;;;;;4968807;28;20047;-79
2022/08/18 04:36:09;;;;;;;0.73;0.57;;;17.60;99.90;;;;;;4952121;29;20035;-78
2022/08/18 04:38:35;;;;;;;1.67;1.33;;;17.70;99.90;;;;;;4950613;28;20047;-79
2022/08/18 04:41:02;;;;;;;0.93;0.80;;;17.60;99.90;;;;;;4966944;28;20120;-78
2022/08/18 04:43:29;;;;;;;1.17;0.90;;;17.70;99.90;;;;;;4970322;28;20391;-78
2022/08/18 04:46:00;;;;;;;3.42;0.65;;;17.70;99.90;;;;;;4969147;28;20107;-78
2022/08/18 04:48:32;;;;;;;0.28;0.28;;;17.70;99.90;;;;;;4970439;28;20051;-78
2022/08/18 04:51:05;;;;;;;2.22;0.85;;;17.70;99.90;;;;;;4969574;28;20043;-78
2022/08/18 04:53:45;;;;;;;0.47;0.47;;;17.70;99.90;;;;;;4968618;28;20051;-78
2022/08/18 04:56:33;;;;;;;0.75;0.50;;;17.70;99.90;;;;;;4968233;28;20035;-77
2022/08/18 04:59:09;;;;;;;5.00;1.60;;;17.70;99.90;;;;;;4967516;29;20529;-78
2022/08/18 05:01:38;;;;;;;0.28;0.22;;;17.70;99.90;;;;;;4971427;28;20104;-77
2022/08/18 05:04:04;;;;;;;0.35;0.35;;;17.80;99.90;;;;;;4970413;28;20039;-78
2022/08/18 05:06:30;;;;;;;1.23;0.88;;;17.80;99.90;;;;;;4970624;28;20058;-78
2022/08/18 05:08:59;;;;;;;0.35;0.35;;;17.80;99.90;;;;;;4969898;28;20048;-78
2022/08/18 05:11:27;;;;;;;0.40;0.35;;;17.90;99.90;;;;;;4968206;28;20039;-78
2022/08/18 05:13:56;;;;;;;1.20;0.40;;;17.90;99.90;;;;;;4965993;28;20071;-80
2022/08/18 05:16:23;;;;;;;0.35;0.22;;;17.90;99.90;;;;;;4967919;28;20043;-78
2022/08/18 05:18:49;;;;;;;0.00;0.00;;;17.90;99.90;;;;;;4971186;28;20043;-78
2022/08/18 05:21:15;;;;;;;1.23;0.70;;;18.00;99.90;;;;;;4968542;28;20074;-78
2022/08/18 05:23:46;;;;;;;0.43;0.38;;;18.10;99.90;;;;;;4967314;29;20040;-78
2022/08/18 05:26:13;;;;;;;0.52;0.47;;;18.20;99.90;;;;;;4964844;28;20061;-78
2022/08/18 05:28:40;;;;;;;0.55;0.45;;;18.20;99.90;;;;;;4964442;28;20095;-78
2022/08/18 05:31:18;;;;;;;0.57;0.43;;;18.20;99.90;;;;;;4967240;28;20047;-78
2022/08/18 05:33:45;;;;;;;0.90;0.63;;;18.30;99.90;;;;;;4969440;28;20051;-77
2022/08/18 05:36:43;;;;;;;0.43;0.35;;;18.20;99.90;;;;;;4968705;28;20402;-77
2022/08/18 05:39:14;;;;;;;0.50;0.43;;;18.20;99.90;;;;;;4970185;28;20056;-77
2022/08/18 05:41:47;;;;;;;1.13;0.93;;;18.20;99.90;;;;;;4969570;28;20426;-77
2022/08/18 05:44:17;;;;;;;6.13;0.85;;;18.10;99.90;;;;;;4969531;28;20047;-78
2022/08/18 05:46:51;;;;;;;0.55;0.52;;;17.80;99.90;;;;;;4969615;28;20039;-77
2022/08/18 05:49:18;;;;;;;0.50;0.40;;;18.00;99.90;;;;;;4968594;29;20063;-77
2022/08/18 05:52:02;;;;;;;1.17;0.77;;;18.00;99.90;;;;;;4966923;29;20047;-78
2022/08/18 05:57:29;;;;;;;0.38;0.38;;;18.10;99.90;;;;;;4968187;29;20055;-77
2022/08/18 05:59:56;;;;;;;0.38;0.38;;;18.20;99.90;;;;;;4968390;29;20043;-78
2022/08/18 06:02:35;;;;;;;0.80;0.55;;;18.10;99.90;;;;;;4971124;28;20537;-78
2022/08/18 06:05:27;;;;;;;0.57;0.50;;;18.20;99.90;;;;;;4972498;28;20126;-77
2022/08/18 06:07:59;;;;;;;0.20;0.20;;;18.30;99.90;;;;;;4971468;28;20531;-77
2022/08/18 06:10:25;;;;;;;2.00;0.93;;;18.40;99.90;;;;;;4975460;28;20067;-77
2022/08/18 06:12:56;;;;;;;1.60;1.15;;;18.40;99.90;;;;;;4975860;28;20039;-77
2022/08/18 06:15:43;;;;;;;2.70;0.77;;;18.70;99.90;;;;;;4974621;28;20050;-77
2022/08/18 06:18:24;;;;;;;0.43;0.43;;;18.50;99.90;;;;;;4974093;29;20129;-77
2022/08/18 06:21:19;;;;;;;1.17;0.45;;;18.50;99.90;;;;;;4974447;28;20537;-78
2022/08/18 06:24:12;;;;;;;18.10;0.90;;;18.40;99.90;;;;;;4971857;29;20054;-77
2022/08/18 06:26:58;;;;;;;3.30;1.38;;;18.40;99.90;;;;;;4971128;29;20046;-77
2022/08/18 06:29:38;;;;;;;0.77;0.60;;;18.40;99.90;;;;;;4970714;28;20047;-77
2022/08/18 06:32:27;;;;;;;1.13;0.55;;;18.30;99.90;;;;;;4970616;29;20338;-77
2022/08/18 06:35:11;;;;;;;0.75;0.50;;;18.30;99.90;;;;;;4970249;28;20082;-77
2022/08/18 06:38:39;;;;;;;0.40;0.40;;;18.40;99.90;;;;;;4972427;29;20493;-77
2022/08/18 06:41:16;;;;;;;9.90;0.55;;;18.40;99.90;;;;;;4964467;29;20090;-77
2022/08/18 06:44:16;;;;;;;0.28;0.28;;;18.50;99.90;;;;;;4971837;28;20039;-78
2022/08/18 06:47:10;;;;;;;0.20;0.20;;;18.60;99.90;;;;;;4973931;28;20047;-77
2022/08/18 06:49:53;;;;;;;1.05;0.85;;;18.80;99.90;;;;;;4973077;28;20054;-78
2022/08/18 06:52:29;;;;;;;1.05;0.93;;;18.80;99.90;;;;;;4975943;28;20051;-79
2022/08/18 06:54:58;;;;;;;1.02;0.98;;;18.80;99.90;;;;;;4975150;28;20043;-79
2022/08/18 06:57:30;;;;;;;5.90;1.08;;;18.90;99.90;;;;;;4973640;28;20062;-78
2022/08/18 07:00:04;;;;;;;0.75;0.43;;;19.10;99.90;;;;;;4971718;29;20042;-79
2022/08/18 07:02:48;;;;;;;0.73;0.43;;;19.40;99.90;;;;;;4966970;29;20049;-80
2022/08/18 07:05:18;;;;;;;0.38;0.38;;;20.10;99.90;;;;;;4960579;29;20083;-79
2022/08/18 07:07:45;;;;;;;8.55;1.23;;;20.60;99.90;;;;;;4952381;29;20062;-79
2022/08/18 07:10:13;;;;;;;0.20;0.20;;;20.50;99.90;;;;;;4952299;29;20119;-80
2022/08/18 07:12:39;;;;;;;1.10;1.00;;;20.40;99.90;;;;;;4952910;29;20078;-80
2022/08/18 07:15:06;;;;;;;0.63;0.63;;;20.20;99.90;;;;;;4947043;29;20518;-80
2022/08/18 07:17:40;;;;;;;0.80;0.68;;;20.10;99.90;;;;;;4947237;29;20471;-80
2022/08/18 07:20:23;;;;;;;0.10;0.10;;;19.90;99.90;;;;;;4947635;29;20106;-80
2022/08/18 07:22:59;;;;;;;0.13;0.13;;;19.60;99.90;;;;;;4947804;29;20052;-81
2022/08/18 07:25:36;;;;;;;1.75;0.98;;;19.30;99.90;;;;;;4945742;29;20056;-79
2022/08/18 07:28:02;;;;;;;5.72;1.63;;;19.20;99.90;;;;;;4940894;29;20583;-81
2022/08/18 07:30:32;;;;;;;3.28;1.80;;;18.90;99.90;;;;;;4952407;29;20035;-79
2022/08/18 07:33:03;;;;;;;0.32;0.28;;;18.90;99.90;;;;;;4948537;29;20090;-79
2022/08/18 07:35:46;;;;;;;0.57;0.40;;;18.90;99.90;;;;;;4948710;29;20039;-80
2022/08/18 07:38:38;;;;;;;1.30;0.57;;;19.00;99.90;;;;;;4949327;29;20456;-80
2022/08/18 07:41:25;;;;;;;0.73;0.30;;;19.00;99.90;;;;;;4941079;28;20047;-81
2022/08/18 07:44:18;;;;;;;0.22;0.20;;;19.30;99.90;;;;;;4940021;29;20048;-80
2022/08/18 07:46:55;;;;;;;0.13;0.08;;;19.00;99.90;;;;;;4945460;29;20419;-81
2022/08/18 07:49:23;;;;;;;0.20;0.20;;;19.10;99.90;;;;;;4946581;29;20094;-81
2022/08/18 07:52:12;;;;;;;2.45;1.08;;;19.20;99.90;;;;;;4951600;28;20090;-80
2022/08/18 07:55:03;;;;;;;0.10;0.10;;;19.00;99.90;;;;;;4947975;29;20102;-81
2022/08/18 07:57:52;;;;;;;0.73;0.60;;;18.90;99.90;;;;;;4947744;29;20070;-81
2022/08/18 08:00:35;;;;;;;2.40;2.20;;;19.10;99.90;;;;;;4949758;29;20183;-81
2022/08/18 08:03:04;;;;;;;0.75;0.45;;;18.90;99.90;;;;;;4952518;29;20403;-80
2022/08/18 08:05:47;;;;;;;0.85;0.65;;;18.90;99.90;;;;;;4949295;29;20075;-81
2022/08/18 08:08:40;;;;;;;4.78;1.35;;;19.10;99.90;;;;;;4951921;29;20089;-81
2022/08/18 08:11:18;;;;;;;2.80;1.23;;;19.30;99.90;;;;;;4949512;29;20047;-81
2022/08/18 08:14:00;;;;;;;1.45;0.60;;;19.40;99.90;;;;;;4951864;29;20096;-81
2022/08/18 08:16:41;;;;;;;0.60;0.50;;;19.40;99.90;;;;;;4950501;29;20059;-81
2022/08/18 08:19:38;;;;;;;0.10;0.10;;;19.10;99.90;;;;;;4951755;29;20058;-81
2022/08/18 08:22:22;;;;;;;1.13;0.57;;;19.20;99.90;;;;;;4952199;29;20054;-81
2022/08/18 08:25:18;;;;;;;0.00;0.00;;;19.10;99.90;;;;;;4959521;29;20439;-81
2022/08/18 08:28:06;;;;;;;0.93;0.50;;;19.20;99.90;;;;;;4961955;29;20058;-81
2022/08/18 08:30:37;;;;;;;2.65;0.68;;;19.60;99.90;;;;;;4959728;28;20380;-80
2022/08/18 08:33:21;;;;;;;1.42;0.25;;;19.80;99.90;;;;;;4943200;29;20478;-80
2022/08/18 08:35:49;;;;;;;0.20;0.20;;;20.30;99.90;;;;;;4958136;28;20533;-80
2022/08/18 08:38:26;;;;;;;7.00;0.55;;;21.10;99.90;;;;;;4957375;28;20079;-79
2022/08/18 08:41:08;;;;;;;2.05;0.98;;;20.70;99.90;;;;;;4958861;28;20068;-80
2022/08/18 08:43:39;;;;;;;0.57;0.08;;;20.70;99.90;;;;;;4955980;28;20047;-79
2022/08/18 08:46:18;;;;;;;0.05;0.05;;;20.60;99.90;;;;;;4954946;28;20055;-81
2022/08/18 08:48:51;;;;;;;0.60;0.38;;;20.60;99.90;;;;;;4954865;28;20047;-79
2022/08/18 08:51:35;;;;;;;0.05;0.05;;;20.60;99.90;;;;;;4956791;28;20051;-79
2022/08/18 08:54:04;;;;;;;1.10;0.80;;;20.40;99.90;;;;;;4956524;28;20046;-79
2022/08/18 08:56:35;;;;;;;0.10;0.10;;;20.30;99.90;;;;;;4957238;28;20062;-78
2022/08/18 08:59:07;;;;;;;0.28;0.20;;;20.30;99.90;;;;;;4955670;28;20050;-79
2022/08/18 09:01:42;;;;;;;0.85;0.85;;;20.30;99.90;;;;;;4957153;28;20095;-78
2022/08/18 09:04:13;;;;;;;0.47;0.32;;;20.50;99.90;;;;;;4938680;29;20126;-79
2022/08/18 09:06:59;;;;;;;0.75;0.43;;;20.40;99.90;;;;;;4951131;29;20087;-78
2022/08/18 09:09:33;;;;;;;;;;;20.60;99.90;;;;;;4947985;29;20493;-78
2022/08/18 09:12:16;;;;;;;0.60;0.38;;;20.70;99.90;;;;;;4941926;28;19923;-79
2022/08/18 09:14:53;;;;;;;0.40;0.32;;;20.50;99.90;;;;;;4946772;28;20047;-78
2022/08/18 09:17:40;;;;;;;1.55;1.02;;;20.80;99.90;;;;;;4941015;29;20107;-79
2022/08/18 09:20:05;;;;;;;0.20;0.20;;;20.90;99.90;;;;;;4937229;29;20048;-78
2022/08/18 09:22:47;;;;;;;0.17;0.17;;;21.20;99.90;;;;;;4938023;29;20052;-78
2022/08/18 09:25:31;;;;;;;0.20;0.20;;;21.40;99.90;;;;;;4938414;29;20054;-78
2022/08/18 09:28:20;;;;;;;0.73;0.73;;;21.50;99.90;;;;;;4945971;29;20075;-77
2022/08/18 09:31:00;;;;;;;3.33;0.93;;;21.40;99.90;;;;;;4952730;29;20843;-77
2022/08/18 09:33:48;;;;;;;5.93;0.68;;;21.20;99.90;;;;;;4948502;29;20069;-79
2022/08/18 09:36:31;;;;;;;0.10;0.10;;;20.70;99.90;;;;;;4937958;29;20047;-79
2022/08/18 09:41:55;;;;;;;1.02;0.65;;;20.50;99.90;;;;;;4934750;29;20059;-78
2022/08/18 09:44:39;;;;;;;0.00;0.00;;;21.10;99.90;;;;;;4938425;29;20071;-78
2022/08/18 09:47:06;;;;;;;0.10;0.10;;;21.50;99.90;;;;;;4939496;29;20409;-79
2022/08/18 09:49:42;;;;;;;2.55;0.30;;;21.50;99.90;;;;;;4941063;29;20086;-78
2022/08/18 09:52:19;;;;;;;0.30;0.25;;;21.40;99.90;;;;;;4939954;29;20043;-79
2022/08/18 09:54:57;;;;;;;0.00;0.00;;;21.20;99.90;;;;;;4939471;29;20056;-79
2022/08/18 09:57:29;;;;;;;0.35;0.32;;;21.10;99.90;;;;;;4939848;29;20425;-78
2022/08/18 10:00:25;;;;;;;0.20;0.20;;;20.90;99.90;;;;;;4937954;29;20040;-78
2022/08/18 10:02:50;;;;;;;0.17;0.15;;;20.80;99.90;;;;;;4939708;29;20043;-79
2022/08/18 10:05:16;;;;;;;0.08;0.08;;;20.90;99.90;;;;;;4939434;29;20521;-78
2022/08/18 10:07:47;;;;;;;0.28;0.13;;;20.80;99.90;;;;;;4939533;29;20066;-80
2022/08/18 10:10:41;;;;;;;0.90;0.35;;;20.90;99.90;;;;;;4939836;29;20072;-78
2022/08/18 10:13:25;;;;;;;0.00;0.00;;;21.10;99.90;;;;;;4939985;29;20047;-77
2022/08/18 10:16:04;;;;;;;0.10;0.10;;;21.30;99.90;;;;;;4938994;29;20095;-78
2022/08/18 10:18:40;;;;;;;0.00;0.00;;;21.10;99.90;;;;;;4939700;29;20059;-78
2022/08/18 10:21:20;;;;;;;0.20;0.20;;;20.80;99.90;;;;;;4939763;29;20495;-78
2022/08/18 10:23:51;;;;;;;0.32;0.30;;;20.70;99.90;;;;;;4939390;29;20047;-78
2022/08/18 10:26:29;;;;;;;0.00;0.00;;;20.80;99.90;;;;;;4937593;29;20521;-78
2022/08/18 10:28:57;;;;;;;4.95;0.63;;;21.00;99.90;;;;;;4937322;29;20066;-79
2022/08/18 10:31:24;;;;;;;0.28;0.20;;;21.30;99.90;;;;;;4936500;29;20503;-78
2022/08/18 10:33:55;;;;;;;0.10;0.10;;;21.40;99.90;;;;;;4937897;29;20055;-79
2022/08/18 10:36:50;;;;;;;0.00;0.00;;;21.50;99.90;;;;;;4937146;29;20099;-80
2022/08/18 10:39:23;;;;;;;0.25;0.17;;;21.70;99.90;;;;;;4936834;29;20111;-78
2022/08/18 10:42:05;;;;;;;0.98;0.38;;;21.90;99.90;;;;;;4936927;29;20477;-79
2022/08/18 10:44:36;;;;;;;0.28;0.10;;;22.00;99.90;;;;;;4939435;29;20104;-77
2022/08/18 10:47:02;;;;;;;0.25;0.20;;;22.10;99.90;;;;;;4939179;29;20079;-78
2022/08/18 10:49:31;;;;;;;0.00;0.00;;;22.40;99.90;;;;;;4939137;29;20106;-78
2022/08/18 10:52:16;;;;;;;0.00;0.00;;;22.50;99.90;;;;;;4939792;29;20384;-77
2022/08/18 10:55:06;;;;;;;2.58;0.90;;;22.20;99.90;;;;;;4939607;29;20067;-77
2022/08/18 10:58:09;;;;;;;0.15;0.15;;;22.00;99.90;;;;;;4938847;29;20063;-78
2022/08/18 11:00:47;;;;;;;0.10;0.10;;;21.70;99.90;;;;;;4940574;29;20115;-77
2022/08/18 11:03:22;;;;;;;0.20;0.10;;;21.80;99.90;;;;;;4939139;29;20131;-78
2022/08/18 11:05:48;;;;;;;0.00;0.00;;;21.70;99.90;;;;;;4938970;29;20044;-77
2022/08/18 11:08:18;;;;;;;0.30;0.30;;;21.70;99.90;;;;;;4938898;29;20408;-79
2022/08/18 11:10:49;;;;;;;0.10;0.10;;;21.90;99.90;;;;;;4939551;29;20055;-78
2022/08/18 11:13:46;;;;;;;0.30;0.30;;;22.00;99.90;;;;;;4940753;29;20094;-77
2022/08/18 11:16:31;;;;;;;1.13;0.52;;;22.00;99.90;;;;;;4939826;29;20048;-77
2022/08/18 11:19:06;;;;;;;0.20;0.20;;;22.00;99.90;;;;;;4939700;29;20051;-78
2022/08/18 11:21:34;;;;;;;0.32;0.25;;;22.30;99.90;;;;;;4940360;29;20103;-77
2022/08/18 11:24:03;;;;;;;0.80;0.28;;;22.70;99.90;;;;;;4940017;29;20143;-77
2022/08/18 11:26:30;;;;;;;1.35;0.60;;;23.30;99.90;;;;;;4939126;29;20427;-77
2022/08/18 11:28:56;;;;;;;0.45;0.38;;;23.30;99.90;;;;;;4938347;29;20127;-77
2022/08/18 11:31:23;;;;;;;0.00;0.00;;;23.50;99.90;;;;;;4938066;29;20126;-77
2022/08/18 11:33:49;;;;;;;2.42;0.88;;;23.70;99.90;;;;;;4939059;29;20483;-78
2022/08/18 11:36:15;;;;;;;0.10;0.10;;;23.50;99.90;;;;;;4938648;29;20514;-77
2022/08/18 11:38:55;;;;;;;0.98;0.38;;;23.30;99.90;;;;;;4938602;29;20044;-77
2022/08/18 11:41:26;;;;;;;1.23;0.65;;;23.20;99.90;;;;;;4938211;29;20054;-79
2022/08/18 11:43:58;;;;;;;0.10;0.10;;;23.10;99.90;;;;;;4938141;29;20078;-77
2022/08/18 11:46:30;;;;;;;0.75;0.52;;;23.30;99.90;;;;;;4938399;29;20232;-77
2022/08/18 11:48:57;;;;;;;1.95;0.45;;;23.70;99.90;;;;;;4938143;29;20044;-77
2022/08/18 11:51:27;;;;;;;0.10;0.10;;;24.60;99.90;;;;;;4937019;29;20380;-77
2022/08/18 11:54:11;;;;;;;0.20;0.10;;;25.40;99.90;;;;;;4938926;29;20039;-77
2022/08/18 11:56:37;;;;;;;0.90;0.55;;;25.70;99.90;;;;;;4937742;29;20396;-77
2022/08/18 11:59:08;;;;;;;0.15;0.13;;;26.20;99.90;;;;;;4937723;29;20103;-77
2022/08/18 12:01:45;;;;;;;0.88;0.47;;;26.20;99.90;;;;;;4938224;29;20039;-78
2022/08/18 12:04:17;;;;;;;0.32;0.30;;;26.50;99.90;;;;;;4937624;29;20067;-77
2022/08/18 12:07:01;;;;;;;0.45;0.45;;;25.90;99.90;;;;;;4936700;29;20131;-77
2022/08/18 12:09:36;;;;;;;0.00;0.00;;;24.80;99.90;;;;;;4937155;29;20095;-78
2022/08/18 12:12:23;;;;;;;0.10;0.10;;;25.40;99.90;;;;;;4937682;29;20055;-77
2022/08/18 12:15:15;;;;;;;0.10;0.08;;;25.50;99.90;;;;;;4936873;29;20055;-77
2022/08/18 12:17:44;;;;;;;0.10;0.10;;;25.20;99.90;;;;;;4936794;29;20107;-77
2022/08/18 12:20:11;;;;;;;0.13;0.10;;;24.60;99.90;;;;;;4936790;29;20406;-77
2022/08/18 12:22:40;;;;;;;2.65;0.57;;;24.50;99.90;;;;;;4936893;29;20131;-76
2022/08/18 12:25:09;;;;;;;0.05;0.03;;;24.00;99.90;;;;;;4936594;29;20103;-77
2022/08/18 12:27:35;;;;;;;0.47;0.17;;;23.90;99.90;;;;;;4936827;29;20044;-76
2022/08/18 12:30:01;;;;;;;1.10;0.52;;;23.90;99.90;;;;;;4936658;29;20561;-76
2022/08/18 12:32:29;;;;;;;0.43;0.43;;;24.60;99.90;;;;;;4936588;29;20044;-77
2022/08/18 12:34:55;;;;;;;0.10;0.03;;;25.50;99.90;;;;;;4936750;29;20127;-77
2022/08/18 12:37:24;;;;;;;0.00;0.00;;;25.50;99.90;;;;;;4936829;29;20131;-77
2022/08/18 12:39:50;;;;;;;4.57;0.68;;;25.30;99.90;;;;;;4936089;29;20071;-77
2022/08/18 12:42:17;;;;;;;0.10;0.10;;;25.00;99.90;;;;;;4936491;29;20124;-76
2022/08/18 12:44:43;;;;;;;0.10;0.10;;;24.40;99.90;;;;;;4936518;29;20039;-76
2022/08/18 12:47:21;;;;;;;0.10;0.10;;;24.40;99.90;;;;;;4936626;29;20529;-76
2022/08/18 12:49:47;;;;;;;0.73;0.73;;;24.40;99.90;;;;;;4936383;29;20039;-77
2022/08/18 12:52:13;;;;;;;0.10;0.10;;;24.30;99.90;;;;;;4935257;29;20070;-76
2022/08/18 12:54:39;;;;;;;0.00;0.00;;;24.70;99.90;;;;;;4936547;29;20054;-76
2022/08/18 12:57:10;;;;;;;0.00;0.00;;;24.70;99.90;;;;;;4936293;29;20059;-77
2022/08/18 12:59:37;;;;;;;0.15;0.05;;;25.00;99.90;;;;;;4936171;29;20043;-77
2022/08/18 13:02:02;;;;;;;0.10;0.10;;;26.30;99.90;;;;;;4936121;29;20055;-76
2022/08/18 13:04:28;;;;;;;0.20;0.20;;;27.10;99.90;;;;;;4936316;29;20040;-76
2022/08/18 13:06:57;;;;;;;0.17;0.17;;;27.50;99.90;;;;;;4934595;29;20052;-76
2022/08/18 13:09:23;;;;;;;0.65;0.40;;;27.80;99.90;;;;;;4936105;29;20043;-76
2022/08/18 13:11:49;;;;;;;0.80;0.55;;;28.10;97.20;;;;;;4936095;29;20065;-77
2022/08/18 13:14:15;;;;;;;2.50;0.80;;;28.40;99.70;;;;;;4936151;29;20043;-76
2022/08/18 13:16:43;;;;;;;3.83;0.85;;;28.30;95.60;;;;;;4936137;29;20079;-77
2022/08/18 13:19:10;;;;;;;0.25;0.25;;;28.40;97.30;;;;;;4934876;29;20055;-76
2022/08/18 13:21:37;;;;;;;0.00;0.00;;;28.60;91.30;;;;;;4935983;29;20448;-76
2022/08/18 13:24:03;;;;;;;0.22;0.13;;;28.40;92.70;;;;;;4936131;29;20138;-76
2022/08/18 13:26:32;;;;;;;0.10;0.10;;;27.90;95.20;;;;;;4936157;29;20099;-76
2022/08/18 13:28:58;;;;;;;0.00;0.00;;;28.40;95.90;;;;;;4935875;29;20083;-79
2022/08/18 13:31:25;;;;;;;0.40;0.20;;;28.60;97.80;;;;;;4935459;29;20183;-76
2022/08/18 13:33:52;;;;;;;0.10;0.10;;;29.10;99.90;;;;;;4936032;29;20043;-77